Flight Track Log - Related Links

Times and Time Zones

All times are in EDT time to prevent confusion due to time zone crossing. See the UAL395 flight status page for this flight to view local times or setup timezone preferences in your user account.

Time Position Orientation Groundspeed Altitude Reporting Facility
EDT Latitude Longitude Course Direction KTS MPH feet Rate Location/Type
Thu 08:17:28 PM 42.0000 -87.9833 206° Southwest 175 201 2,900  Level Chicago TRACON
Thu 08:18:28 PM 41.9500 -88.0167 206° Southwest 237 273 4,100 1,800 Climbing Chicago TRACON
Thu 08:19:28 PM 41.8833 -88.0667 209° Southwest 280 322 6,500 2,170 Climbing Chicago TRACON
Thu 08:20:02 PM 41.8486 -88.0778 193° South 281 323 7,500 2,474 Climbing Chicago Center
Thu 08:21:05 PM 41.7492 -88.0808 181° South 301 346 10,500 2,304 Climbing Chicago Center
Thu 08:22:07 PM 41.6667 -88.1058 193° South 306 352 12,300 1,210 Climbing Chicago Center
Thu 08:23:09 PM 41.5706 -88.1347 193° South 355 409 13,000 1,210 Climbing Chicago Center
Thu 08:24:11 PM 41.4664 -88.1644 192° South 388 447 14,800 1,694 Climbing Chicago Center
Thu 08:25:13 PM 41.3425 -88.2081 195° South 398 458 16,500 1,887 Climbing Chicago Center
Thu 08:26:15 PM 41.2358 -88.2564 199° South 409 471 18,700 1,694 Climbing Chicago Center
Thu 08:27:17 PM 41.1289 -88.3039 198° South 408 470 20,000 1,258 Climbing Chicago Center
Thu 08:28:19 PM 41.0194 -88.3539 199° South 416 479 21,300 1,210 Climbing Chicago Center
Thu 08:29:21 PM 40.8822 -88.4153 199° South 435 501 22,500 1,008 Climbing Chicago Center
Thu 08:30:24 PM 40.7636 -88.4678 199° South 450 518 23,400 864 Climbing Chicago Center
Thu 08:31:26 PM 40.6428 -88.5219 199° South 458 527 24,300 919 Climbing Chicago Center
Thu 08:32:28 PM 40.5192 -88.5753 198° South 467 537 25,300 968 Climbing Chicago Center
Thu 08:33:30 PM 40.3983 -88.6281 198° South 474 545 26,300 1,016 Climbing Chicago Center
Thu 08:34:32 PM 40.2639 -88.7336 211° Southwest 480 552 27,400 919 Climbing Chicago Center
Thu 08:35:34 PM 40.1703 -88.8517 224° Southwest 472 543 28,200 629 Climbing Chicago Center
Thu 08:36:36 PM 40.0783 -88.9689 224° Southwest 465 535 28,700 629 Climbing Chicago Center
Thu 08:37:38 PM 39.9842 -89.0894 224° Southwest 468 539 29,500 1,049 Climbing Chicago Center
Thu 08:38:19 PM 39.9108 -89.1819 224° Southwest 469 540 30,500 1,165 Climbing Kansas City Center
Thu 08:39:21 PM 39.8181 -89.2975 224° Southwest 464 534 31,500 726 Climbing Kansas City Center
Thu 08:40:23 PM 39.7264 -89.4128 224° Southwest 460 529 32,000 242 Climbing Kansas City Center
Thu 08:41:25 PM 39.6350 -89.5264 224° Southwest 456 525 32,000  Level Kansas City Center
Thu 08:43:00 PM 39.5249 -89.6570 222° Southwest  Level FlightAware Approximate
Thu 08:43:51 PM 39.4131 -89.8044 222° Southwest 463 533 32,000  Level Chicago Center
Thu 08:44:30 PM 39.3586 -89.8719 224° Southwest 460 529 32,200 600 Climbing Kansas City Center
Thu 08:45:31 PM 39.2667 -89.9858 224° Southwest 459 528 33,000 878 Climbing Kansas City Center
Thu 08:46:33 PM 39.1558 -90.1214 224° Southwest 459 528 34,000 484 Climbing Kansas City Center
Thu 08:47:35 PM 39.0650 -90.2344 224° Southwest 457 526 34,000  Level Kansas City Center
Thu 08:48:36 PM 38.9742 -90.3467 224° Southwest 457 526 34,000  Level Kansas City Center
Thu 08:49:38 PM 38.8847 -90.4553 223° Southwest 449 517 34,000  Level Kansas City Center
Thu 08:50:40 PM 38.8122 -90.5858 235° Southwest 459 528 34,000  Level Kansas City Center
Thu 08:51:41 PM 38.7428 -90.7522 242° Southwest 450 518 34,000  Level Kansas City Center
Thu 08:52:43 PM 38.6817 -90.8867 240° Southwest 444 511 34,000  Level Kansas City Center
Thu 08:53:44 PM 38.6236 -91.0183 241° Southwest 437 503 34,000  Level Kansas City Center
Thu 08:54:46 PM 38.5619 -91.1558 240° Southwest 446 513 34,000  Level Kansas City Center
Thu 08:55:48 PM 38.5017 -91.2897 240° Southwest 440 506 34,000 390 Level Kansas City Center
Thu 08:56:49 PM 38.4367 -91.4325 240° Southwest 440 506 34,800 683 Climbing Kansas City Center
Thu 08:57:51 PM 38.3761 -91.5672 240° Southwest 441 507 35,400 532 Climbing Kansas City Center
Thu 08:58:53 PM 38.3144 -91.7033 240° Southwest 448 516 35,900 288 Climbing Kansas City Center
Thu 08:59:56 PM 38.2397 -91.8628 239° Southwest 433 498 36,000 48 Climbing Kansas City Center
Thu 09:00:57 PM 38.1778 -91.9994 240° Southwest 436 502 36,000  Level Kansas City Center
Thu 09:01:59 PM 38.1178 -92.1242 239° Southwest 446 513 36,000  Level Kansas City Center
Thu 09:03:01 PM 38.0556 -92.2572 239° Southwest 465 535 36,000  Level Kansas City Center
Thu 09:04:02 PM 37.9919 -92.3933 239° Southwest 462 532 36,000  Level Kansas City Center
Thu 09:05:04 PM 37.9181 -92.5533 240° Southwest 448 516 36,000  Level Kansas City Center
Thu 09:06:05 PM 37.8569 -92.6908 241° Southwest 447 514 36,000  Level Kansas City Center
Thu 09:07:07 PM 37.7911 -92.8264 238° Southwest 447 514 36,000  Level Kansas City Center
Thu 09:08:09 PM 37.7269 -92.9619 239° Southwest 447 514 36,000  Level Kansas City Center
Thu 09:09:10 PM 37.6628 -93.0972 239° Southwest 448 516 36,000  Level Kansas City Center
Thu 09:10:12 PM 37.5972 -93.2333 239° Southwest 451 519 36,000  Level Kansas City Center
Thu 09:11:13 PM 37.5333 -93.3692 239° Southwest 451 519 36,000  Level Kansas City Center
Thu 09:12:15 PM 37.4694 -93.5014 239° Southwest 443 510 36,000  Level Kansas City Center
Thu 09:13:16 PM 37.3911 -93.6639 239° Southwest 449 517 36,000  Level Kansas City Center
Thu 09:14:18 PM 37.3258 -93.8006 239° Southwest 454 522 36,000  Level Kansas City Center
Thu 09:15:20 PM 37.2586 -93.9361 238° Southwest 456 525 36,000  Level Kansas City Center
Thu 09:16:21 PM 37.1911 -94.0736 238° Southwest 459 528 36,000  Level Kansas City Center
Thu 09:17:23 PM 37.1250 -94.2092 239° Southwest 461 531 36,000  Level Kansas City Center
Thu 09:18:24 PM 37.0575 -94.3472 239° Southwest 463 533 36,000  Level Kansas City Center
Thu 09:19:26 PM 36.9897 -94.4819 238° Southwest 459 528 36,000  Level Kansas City Center
Thu 09:20:27 PM 36.9214 -94.6178 238° Southwest 460 529 36,000  Level Kansas City Center
Thu 09:21:29 PM 36.8394 -94.7808 238° Southwest 461 531 36,000  Level Kansas City Center
Thu 09:22:30 PM 36.7706 -94.9172 238° Southwest 462 532 36,000  Level Kansas City Center
Thu 09:23:32 PM 36.7008 -95.0553 238° Southwest 466 536 36,000  Level Kansas City Center
Thu 09:24:34 PM 36.6311 -95.1933 238° Southwest 470 541 36,000  Level Kansas City Center
Thu 09:25:35 PM 36.5564 -95.3408 238° Southwest 473 544 36,000  Level Kansas City Center
Thu 09:26:37 PM 36.4853 -95.4800 238° Southwest 476 548 36,000  Level Kansas City Center
Thu 09:27:38 PM 36.4125 -95.6172 237° Southwest 477 549 36,000  Level Kansas City Center
Thu 09:28:40 PM 36.3367 -95.7667 238° Southwest 478 550 36,000  Level Kansas City Center
Thu 09:29:41 PM 36.2658 -95.9033 237° Southwest 473 544 36,000 49 Level Kansas City Center
Thu 09:30:43 PM 36.1947 -96.0408 237° Southwest 473 544 36,100  Climbing Kansas City Center
Thu 09:31:45 PM 36.1233 -96.1772 237° Southwest 473 544 36,000 -49 Descending Kansas City Center
Thu 09:32:46 PM 36.0522 -96.3128 237° Southwest 471 542 36,000  Level Kansas City Center
Thu 09:33:47 PM 35.9722 -96.4644 237° Southwest 469 540 36,000  Level Kansas City Center
Thu 09:34:49 PM 35.9008 -96.5992 237° Southwest 470 541 36,000  Level Kansas City Center
Thu 09:35:50 PM 35.8289 -96.7339 237° Southwest 470 541 36,000  Level Kansas City Center
Thu 09:36:52 PM 35.7575 -96.8692 237° Southwest 471 542 36,000  Level Kansas City Center
Thu 09:37:53 PM 35.6853 -97.0036 237° Southwest 472 543 36,000  Level Kansas City Center
Thu 09:39:07 PM 35.5958 -97.1736 237° Southwest 476 548 36,000  Level Fort Worth Center
Thu 09:40:07 PM 35.5147 -97.3269 237° Southwest 481 554 36,000  Level Fort Worth Center
Thu 09:41:07 PM 35.4375 -97.4619 235° Southwest 488 562 36,000  Level Fort Worth Center
Thu 09:42:07 PM 35.3789 -97.6147 245° Southwest 498 573 36,000  Level Fort Worth Center
Thu 09:43:07 PM 35.3661 -97.7775 265° West 473 544 36,000  Level Fort Worth Center
Thu 09:44:07 PM 35.3800 -97.9381 276° West 473 544 36,000  Level Fort Worth Center
Thu 09:45:07 PM 35.3917 -98.0986 275° West 473 544 36,000  Level Fort Worth Center
Thu 09:46:07 PM 35.4033 -98.2617 275° West 479 551 36,000  Level Fort Worth Center
Thu 09:47:07 PM 35.4125 -98.4222 274° West 479 551 36,000  Level Fort Worth Center
Thu 09:48:07 PM 35.4217 -98.5625 275° West 474 545 36,000  Level Fort Worth Center
Thu 09:49:07 PM 35.4328 -98.7256 275° West 474 545 36,000  Level Fort Worth Center
Thu 09:50:07 PM 35.4414 -98.8864 274° West 474 545 36,000  Level Fort Worth Center
Thu 09:51:07 PM 35.4497 -99.0419 274° West 474 545 36,000  Level Fort Worth Center
Thu 09:53:34 PM 35.4733 -99.4139 275° West 459 528 36,000  Level Albuquerque Center
Thu 09:54:35 PM 35.4817 -99.5722 274° West 460 529 36,000  Level Albuquerque Center
Thu 09:55:36 PM 35.4911 -99.7314 274° West 463 533 36,000  Level Albuquerque Center
Thu 09:56:38 PM 35.4986 -99.8919 273° West 468 539 36,000 49 Level Albuquerque Center
Thu 09:57:39 PM 35.5108 -100.0867 274° West 472 543 36,100 49 Climbing Albuquerque Center
Thu 09:58:40 PM 35.5172 -100.2467 273° West 471 542 36,100 -49 Level Albuquerque Center
Thu 09:59:42 PM 35.5256 -100.4050 274° West 465 535 36,000 -49 Descending Albuquerque Center
Thu 10:00:43 PM 35.5333 -100.5617 274° West 461 531 36,000  Level Albuquerque Center
Thu 10:01:44 PM 35.5397 -100.7036 273° West 457 526 36,000  Level Albuquerque Center
Thu 10:02:45 PM 35.5469 -100.8569 273° West 454 522 36,000  Level Albuquerque Center
Thu 10:03:47 PM 35.5536 -101.0433 273° West 456 525 36,000 49 Level Albuquerque Center
Thu 10:04:48 PM 35.5606 -101.1989 273° West 459 528 36,100  Climbing Albuquerque Center
Thu 10:05:49 PM 35.5683 -101.3553 274° West 462 532 36,000 -49 Descending Albuquerque Center
Thu 10:06:51 PM 35.5736 -101.5111 272° West 463 533 36,000  Level Albuquerque Center
Thu 10:07:52 PM 35.5794 -101.6689 273° West 467 537 36,000  Level Albuquerque Center
Thu 10:08:53 PM 35.5856 -101.8264 273° West 468 539 36,000  Level Albuquerque Center
Thu 10:09:54 PM 35.5917 -102.0150 272° West 466 536 36,000  Level Albuquerque Center
Thu 10:10:56 PM 35.5967 -102.1714 272° West 464 534 36,000  Level Albuquerque Center
Thu 10:11:57 PM 35.6014 -102.3283 272° West 463 533 36,000  Level Albuquerque Center
Thu 10:12:58 PM 35.6061 -102.4850 272° West 462 532 36,000  Level Albuquerque Center
Thu 10:14:00 PM 35.6117 -102.6439 273° West 465 535 36,000  Level Albuquerque Center
Thu 10:15:01 PM 35.6150 -102.8031 272° West 468 539 36,000  Level Albuquerque Center
Thu 10:16:02 PM 35.6214 -102.9619 273° West 467 537 36,000  Level Albuquerque Center
Thu 10:17:04 PM 35.6250 -103.1236 272° West 469 540 36,000  Level Albuquerque Center
Thu 10:18:05 PM 35.6128 -103.3089 265° West 467 537 36,000  Level Albuquerque Center
Thu 10:19:07 PM 35.5875 -103.4658 259° West 467 537 36,000  Level Albuquerque Center
Thu 10:20:08 PM 35.5642 -103.6233 260° West 467 537 36,000  Level Albuquerque Center
Thu 10:21:09 PM 35.5417 -103.7808 260° West 466 536 36,000  Level Albuquerque Center
Thu 10:22:11 PM 35.5181 -103.9386 260° West 468 539 36,000  Level Albuquerque Center
Thu 10:23:12 PM 35.4936 -104.0975 259° West 472 543 36,000  Level Albuquerque Center
Thu 10:24:13 PM 35.4697 -104.2547 259° West 472 543 36,000  Level Albuquerque Center
Thu 10:25:15 PM 35.4453 -104.4108 259° West 470 541 36,000  Level Albuquerque Center
Thu 10:26:16 PM 35.4156 -104.5933 259° West 469 540 36,000  Level Albuquerque Center
Thu 10:27:18 PM 35.3906 -104.7506 259° West 469 540 36,000  Level Albuquerque Center
Thu 10:28:19 PM 35.3658 -104.9100 259° West 473 544 36,000  Level Albuquerque Center
Thu 10:29:20 PM 35.3397 -105.0719 259° West 478 550 36,000  Level Albuquerque Center
Thu 10:30:22 PM 35.3131 -105.2303 258° West 476 548 36,000  Level Albuquerque Center
Thu 10:31:23 PM 35.2872 -105.3897 259° West 474 545 36,000  Level Albuquerque Center
Thu 10:32:25 PM 35.2611 -105.5492 259° West 474 545 36,000  Level Albuquerque Center
Thu 10:33:26 PM 35.2350 -105.7072 259° West 473 544 36,000  Level Albuquerque Center
Thu 10:34:27 PM 35.2078 -105.8656 258° West 473 544 36,000  Level Albuquerque Center
Thu 10:35:29 PM 35.1803 -106.0244 258° West 474 545 36,000  Level Albuquerque Center
Thu 10:36:30 PM 35.1533 -106.1839 258° West 475 547 36,000  Level Albuquerque Center
Thu 10:37:31 PM 35.1278 -106.3372 259° West 476 548 36,000  Level Albuquerque Center
Thu 10:38:33 PM 35.0997 -106.4958 258° West 477 549 36,000  Level Albuquerque Center
Thu 10:39:34 PM 35.0658 -106.6831 258° West 485 558 36,000  Level Albuquerque Center
Thu 10:40:35 PM 35.0394 -106.8344 258° West 482 555 36,000  Level Albuquerque Center
Thu 10:41:37 PM 34.9944 -107.0069 252° West 476 548 36,000  Level Albuquerque Center
Thu 10:42:38 PM 34.9569 -107.1556 253° West 477 549 36,000  Level Albuquerque Center
Thu 10:43:39 PM 34.9111 -107.3269 252° West 486 559 36,000  Level Albuquerque Center
Thu 10:44:41 PM 34.8714 -107.4814 253° West 481 554 36,000  Level Albuquerque Center
Thu 10:45:42 PM 34.8311 -107.6356 252° West 479 551 36,000  Level Albuquerque Center
Thu 10:46:44 PM 34.7897 -107.7897 252° West 478 550 36,000  Level Albuquerque Center
Thu 10:47:45 PM 34.7500 -107.9450 253° West 480 552 36,000  Level Albuquerque Center
Thu 10:48:46 PM 34.7089 -108.0972 252° West 478 550 36,000  Level Albuquerque Center
Thu 10:49:48 PM 34.6689 -108.2497 252° West 476 548 36,000  Level Albuquerque Center
Thu 10:50:49 PM 34.6272 -108.4031 252° West 477 549 36,000  Level Albuquerque Center
Thu 10:51:50 PM 34.5786 -108.5836 252° West 476 548 36,000  Level Albuquerque Center
Thu 10:52:51 PM 34.5383 -108.7294 252° West 475 547 36,000  Level Albuquerque Center
Thu 10:53:53 PM 34.4981 -108.8761 252° West 477 549 36,000  Level Albuquerque Center
Thu 10:54:54 PM 34.4506 -109.0481 252° West 478 550 36,000  Level Albuquerque Center
Thu 10:55:55 PM 34.4078 -109.1950 251° West 480 552 36,000  Level Albuquerque Center
Thu 10:56:57 PM 34.3592 -109.3372 248° West 481 554 36,000  Level Albuquerque Center
Thu 10:57:58 PM 34.3022 -109.5025 247° West 478 550 36,000  Level Albuquerque Center
Thu 10:58:59 PM 34.2547 -109.6461 248° West 479 551 36,000  Level Albuquerque Center
Thu 11:00:00 PM 34.1981 -109.8108 247° West 476 548 36,000  Level Albuquerque Center
Thu 11:01:02 PM 34.1500 -109.9531 248° West 476 548 36,000  Level Albuquerque Center
Thu 11:02:03 PM 34.1017 -110.0906 247° West 476 548 36,000  Level Albuquerque Center
Thu 11:03:04 PM 34.0514 -110.2378 248° West 479 551 36,000  Level Albuquerque Center
Thu 11:04:06 PM 33.9944 -110.4017 247° West 482 555 36,000  Level Albuquerque Center
Thu 11:05:07 PM 33.9414 -110.5522 247° West 487 560 36,000  Level Albuquerque Center
Thu 11:06:08 PM 33.8867 -110.6986 246° West 482 555 36,000  Level Albuquerque Center
Thu 11:07:10 PM 33.8214 -110.8364 240° Southwest 474 545 36,000  Level Albuquerque Center
Thu 11:08:11 PM 33.7572 -110.9767 241° Southwest 476 548 36,000  Level Albuquerque Center
Thu 11:09:12 PM 33.6928 -111.1153 241° Southwest 475 547 36,000  Level Albuquerque Center
Thu 11:10:14 PM 33.6153 -111.2825 241° Southwest 476 548 36,000  Level Albuquerque Center
Thu 11:11:15 PM 33.5506 -111.4208 241° Southwest 473 544 36,000  Level Albuquerque Center
Thu 11:12:17 PM 33.4864 -111.5592 241° Southwest 472 543 36,000  Level Albuquerque Center
Thu 11:13:18 PM 33.4300 -111.7053 245° Southwest 488 562 36,000  Level Albuquerque Center
Thu 11:14:19 PM 33.4022 -111.8606 258° West 478 550 36,000  Level Albuquerque Center
Thu 11:15:21 PM 33.3747 -112.0156 258° West 475 547 36,000  Level Albuquerque Center
Thu 11:16:22 PM 33.3492 -112.1697 259° West 473 544 36,000 -146 Level Albuquerque Center
Thu 11:17:24 PM 33.3236 -112.3244 259° West 474 545 35,700 -585 Descending Albuquerque Center
Thu 11:18:25 PM 33.2983 -112.4747 259° West 462 532 34,800 -878 Descending Albuquerque Center
Thu 11:19:27 PM 33.2722 -112.6314 259° West 467 537 33,900 -390 Descending Albuquerque Center
Thu 11:20:28 PM 33.2458 -112.7864 259° West 475 547 34,000 49 Climbing Albuquerque Center
Thu 11:21:29 PM 33.2206 -112.9397 259° West 475 547 34,000  Level Albuquerque Center
Thu 11:22:31 PM 33.1881 -113.1242 258° West 476 548 34,000  Level Albuquerque Center
Thu 11:23:32 PM 33.1608 -113.2786 258° West 477 549 34,000 -49 Level Albuquerque Center
Thu 11:24:34 PM 33.1339 -113.4303 258° West 476 548 33,900 -49 Descending Albuquerque Center
Thu 11:25:35 PM 33.1083 -113.5797 259° West 470 541 33,900  Level Albuquerque Center
Thu 11:26:37 PM 33.0808 -113.7292 258° West 466 536 33,900  Level Albuquerque Center
Thu 11:27:38 PM 33.0547 -113.8789 258° West 464 534 33,900  Level Albuquerque Center
Thu 11:28:40 PM 33.0278 -114.0283 258° West 464 534 33,900  Level Albuquerque Center
Thu 11:29:41 PM 33.0017 -114.2106 260° West 467 537 33,900 -341 Level Albuquerque Center
Thu 11:30:43 PM 32.9856 -114.3619 263° West 466 536 33,200 -829 Descending Albuquerque Center
Thu 11:31:44 PM 32.9694 -114.5150 263° West 466 536 32,200 -945 Descending Albuquerque Center
Thu 11:32:50 PM 32.9528 -114.6803 263° West 467 537 31,200 -938 Descending Los Angeles Center
Thu 11:33:52 PM 32.9364 -114.8308 263° West 462 532 30,200 -889 Descending Los Angeles Center
Thu 11:35:05 PM 32.9189 -114.9833 262° West 464 534 29,200 -933 Descending Los Angeles Center
Thu 11:36:07 PM 32.9000 -115.1578 263° West 447 514 28,100 -1,324 Descending Los Angeles Center
Thu 11:37:21 PM 32.8794 -115.3300 262° West 439 505 26,200 -1,941 Descending Los Angeles Center
Thu 11:38:23 PM 32.8592 -115.5000 262° West 431 496 23,700 -2,226 Descending Los Angeles Center
Thu 11:39:25 PM 32.8433 -115.6400 262° West 428 493 21,600 -1,805 Descending Los Angeles Center
Thu 11:40:26 PM 32.8308 -115.7486 262° West 419 482 20,000 -1,951 Descending Los Angeles Center
Thu 11:41:28 PM 32.8122 -115.9075 262° West 405 466 17,600 -2,032 Descending Los Angeles Center
Thu 11:42:30 PM 32.7969 -116.0342 262° West 390 449 15,800 -878 Descending Los Angeles Center
Thu 11:43:31 PM 32.7822 -116.1542 262° West 369 425 15,800 -732 Level Los Angeles Center
Thu 11:44:33 PM 32.7650 -116.2950 262° West 354 407 14,300 -1,645 Descending Los Angeles Center
Thu 11:45:35 PM 32.7481 -116.4072 260° West 340 391 12,400 -1,644 Descending Los Angeles Center
Thu 11:46:48 PM 32.7325 -116.5164 260° West 335 386 10,600 -1,289 Descending Los Angeles Center
Thu 11:47:50 PM 32.7058 -116.6322 255° West 310 357 9,500 -919 Descending Los Angeles Center
Thu 11:48:52 PM 32.6744 -116.7186 247° West 294 338 8,700 -794 Descending Los Angeles Center
Thu 11:50:06 PM 32.6506 -116.7869 247° West 254 292 7,700 -1,059 Descending Los Angeles Center
Thu 11:51:08 PM 32.6558 -116.8631 275° West 208 239 6,300 -1,307 Descending Los Angeles Center
Thu 11:51:47 PM 32.6667 -116.9167 284° West 197 227 5,500 -1,231 Descending Southern California TRACON

Login

Don't have an account? Register now (free) for customized features, flight alerts, and more!